Terminal Aerodrome Forecast
Issued by NWS Flagstaff, AZ

Home | Current Version | Previous Version | Text Only | Print | Product List | Glossary On
Versions: 1 2 3 4 5 6 7 8 9 10 11 12 13
000
FTUS45 KFGZ 031120
TAFFLG
TAF
KFLG 031120Z 0312/0412 VRB04KT P6SM FEW050 SCT200
     FM031800 22012G19KT P6SM BKN050 BKN100
     FM040200 VRB04KT P6SM SCT050 BKN200=

USA.gov is the U.S. government's official web portal to all federal, state and local government web resources and services.